Time;durP1;ratioP1;P1;durP2;ratioP2;P2;SDS_P1;SDS_P2;PMS_P1;PMS_P2;Temp;Humidity;BMP_temperature;BMP_pressure;BME280_temperature;BME280_humidity;BME280_pressure;Samples;Min_cycle;Max_cycle;Signal;HPM_P1;HPM_P2
2022/02/07 00:00:17;;;;;;;;;;;1.90;99.90;;;;;;4938017;28;19937;-63
2022/02/07 00:05:23;;;;;;;;;;;1.90;99.90;;;;;;4937800;28;19926;-65
2022/02/07 00:07:50;;;;;;;;;;;1.90;99.90;;;;;;4936871;28;19926;-63
2022/02/07 00:10:17;;;;;;;;;;;1.90;99.90;;;;;;4941003;28;20017;-64
2022/02/07 00:12:46;;;;;;;;;;;1.90;99.90;;;;;;4938273;28;20013;-66
2022/02/07 00:15:14;;;;;;;;;;;1.90;99.90;;;;;;4940643;28;20013;-66
2022/02/07 00:17:41;;;;;;;;;;;1.90;99.90;;;;;;4941854;28;19941;-64
2022/02/07 00:20:13;;;;;;;;;;;1.90;99.90;;;;;;4938594;28;19926;-65
2022/02/07 00:22:40;;;;;;;;;;;1.90;99.90;;;;;;4942018;28;20485;-64
2022/02/07 00:25:07;;;;;;;;;;;1.90;99.90;;;;;;4942246;28;19930;-64
2022/02/07 00:27:34;;;;;;;;;;;1.90;99.90;;;;;;4943490;28;19922;-66
2022/02/07 00:30:05;;;;;;;;;;;1.90;99.90;;;;;;4968354;28;19963;-64
2022/02/07 00:32:33;;;;;;;;;;;1.90;99.90;;;;;;4944046;28;20006;-63
2022/02/07 00:34:59;;;;;;;;;;;1.90;99.90;;;;;;4939062;28;19927;-63
2022/02/07 00:37:30;;;;;;;;;;;1.90;99.90;;;;;;4946119;28;19922;-65
2022/02/07 00:43:01;;;;;;;;;;;1.90;99.90;;;;;;4934194;28;19922;-64
2022/02/07 00:48:01;;;;;;;;;;;1.90;99.90;;;;;;4956607;28;19927;-65
2022/02/07 00:50:33;;;;;;;;;;;1.90;99.90;;;;;;4955782;28;20292;-67
2022/02/07 00:53:00;;;;;;;;;;;1.90;99.90;;;;;;4967533;28;19997;-64
2022/02/07 00:55:28;;;;;;;;;;;1.90;99.90;;;;;;4940157;28;19922;-64
2022/02/07 00:57:55;;;;;;;;;;;1.90;99.90;;;;;;4939695;28;19972;-65
2022/02/07 01:00:21;;;;;;;;;;;1.90;99.90;;;;;;4953882;28;20432;-64
2022/02/07 01:02:48;;;;;;;;;;;1.90;99.90;;;;;;4931929;28;20013;-65
2022/02/07 01:05:16;;;;;;;;;;;2.00;99.90;;;;;;4941436;28;19927;-68
2022/02/07 01:07:47;;;;;;;;;;;2.00;99.90;;;;;;4936389;28;19927;-64
2022/02/07 01:10:22;;;;;;;;;;;2.00;99.90;;;;;;4945882;28;20271;-65
2022/02/07 01:51:59;;;;;;;;;;;2.10;99.90;;;;;;4939403;28;19931;-66
2022/02/07 01:57:10;;;;;;;;;;;2.00;99.90;;;;;;4945270;28;20013;-64
2022/02/07 01:59:37;;;;;;;;;;;2.00;99.90;;;;;;4947520;28;19965;-63
2022/02/07 02:02:06;;;;;;;;;;;2.00;99.90;;;;;;4945848;28;19930;-64
2022/02/07 02:04:33;;;;;;;;;;;2.00;99.90;;;;;;4945794;28;20289;-63
2022/02/07 02:07:02;;;;;;;;;;;1.90;99.90;;;;;;4944743;28;20445;-65
2022/02/07 02:09:30;;;;;;;;;;;1.90;99.90;;;;;;4927999;28;20025;-63
2022/02/07 02:12:02;;;;;;;;;;;1.90;99.90;;;;;;4960350;28;19926;-67
2022/02/07 02:37:20;;;;;;;;;;;1.90;99.90;;;;;;4942435;28;22570;-65
2022/02/07 02:45:30;;;;;;;;;;;1.90;99.90;;;;;;4945867;28;19966;-64
2022/02/07 02:48:03;;;;;;;;;;;1.90;99.90;;;;;;4960061;28;19949;-63
2022/02/07 02:50:35;;;;;;;;;;;1.90;99.90;;;;;;4944297;28;20421;-64
2022/02/07 02:53:04;;;;;;;;;;;2.00;99.90;;;;;;4941149;28;19930;-65
2022/02/07 02:55:32;;;;;;;;;;;1.90;99.90;;;;;;4942286;28;19927;-65
2022/02/07 02:58:04;;;;;;;;;;;1.90;99.90;;;;;;4966971;28;20560;-63
2022/02/07 03:00:31;;;;;;;;;;;1.90;99.90;;;;;;4946066;28;19965;-68
2022/02/07 03:02:58;;;;;;;;;;;1.90;99.90;;;;;;4938425;28;19958;-67
2022/02/07 03:05:25;;;;;;;;;;;1.90;99.90;;;;;;4942289;28;20518;-64
2022/02/07 03:07:52;;;;;;;;;;;1.90;99.90;;;;;;4942296;28;20344;-67
2022/02/07 03:10:29;;;;;;;;;;;1.80;99.90;;;;;;4945326;28;19965;-67
2022/02/07 03:13:09;;;;;;;;;;;1.80;99.90;;;;;;4944457;28;20033;-67
2022/02/07 03:18:22;;;;;;;;;;;1.80;99.90;;;;;;4944757;28;20030;-65
2022/02/07 03:20:49;;;;;;;;;;;1.90;99.90;;;;;;4934034;28;20032;-67
2022/02/07 03:23:16;;;;;;;;;;;1.90;99.90;;;;;;4942204;28;19926;-64
2022/02/07 03:25:43;;;;;;;;;;;1.90;99.90;;;;;;4965647;28;20400;-68
2022/02/07 03:28:10;;;;;;;;;;;1.90;99.90;;;;;;4946051;28;19926;-67
2022/02/07 03:30:40;;;;;;;;;;;1.90;99.90;;;;;;4939613;28;19942;-65
2022/02/07 03:33:07;;;;;;;;;;;1.90;99.90;;;;;;4945041;28;19958;-63
2022/02/07 03:35:35;;;;;;;;;;;1.90;99.90;;;;;;4940965;28;19929;-68
2022/02/07 03:38:02;;;;;;;;;;;1.90;99.90;;;;;;4935429;28;19989;-66
2022/02/07 03:40:29;;;;;;;;;;;1.90;99.90;;;;;;4941205;28;20045;-63
2022/02/07 03:42:56;;;;;;;;;;;1.90;99.90;;;;;;4880611;28;20175;-68
2022/02/07 03:45:26;;;;;;;;;;;1.90;99.90;;;;;;2076134;28;10023084;-63
2022/02/07 03:47:59;;;;;;;;;;;1.90;99.90;;;;;;3912437;28;10001287;-63
2022/02/07 03:50:32;;;;;;;;;;;1.90;99.90;;;;;;4944404;28;19933;-65
2022/02/07 03:52:59;;;;;;;;;;;1.90;99.90;;;;;;4943941;28;20287;-63
2022/02/07 03:55:30;;;;;;;;;;;2.00;99.90;;;;;;4965691;28;19938;-64
2022/02/07 03:58:01;;;;;;;;;;;2.00;99.90;;;;;;4939079;28;19948;-63
2022/02/07 04:00:28;;;;;;;;;;;1.90;99.90;;;;;;4946423;28;20051;-63
2022/02/07 04:03:13;;;;;;;;;;;1.90;99.90;;;;;;4939764;28;20005;-65
2022/02/07 04:05:57;;;;;;;;;;;2.00;99.90;;;;;;4966746;28;19926;-64
2022/02/07 04:08:30;;;;;;;;;;;1.90;99.90;;;;;;4942025;28;20029;-64
2022/02/07 04:13:31;;;;;;;;;;;1.90;99.90;;;;;;4954617;28;20104;-66
2022/02/07 04:16:03;;;;;;;;;;;1.90;99.90;;;;;;4938257;28;20006;-64
2022/02/07 04:18:48;;;;;;;;;;;1.90;99.90;;;;;;4943305;28;19976;-64
2022/02/07 04:21:16;;;;;;;;;;;2.00;99.90;;;;;;4938458;28;19977;-62
2022/02/07 04:23:44;;;;;;;;;;;2.00;99.90;;;;;;4937142;28;19929;-65
2022/02/07 04:26:29;;;;;;;;;;;2.00;99.90;;;;;;4941246;28;20250;-64
2022/02/07 04:28:56;;;;;;;;;;;2.00;99.90;;;;;;4941557;28;19992;-64
2022/02/07 04:31:24;;;;;;;;;;;2.10;99.90;;;;;;4953985;28;20014;-63
2022/02/07 04:33:51;;;;;;;;;;;2.10;99.90;;;;;;4945133;28;19930;-63
2022/02/07 04:36:18;;;;;;;;;;;2.10;99.90;;;;;;4939544;28;20320;-69
2022/02/07 04:38:45;;;;;;;;;;;2.00;99.90;;;;;;4942496;28;19957;-68
2022/02/07 04:41:14;;;;;;;;;;;2.00;99.90;;;;;;4939617;28;19930;-68
2022/02/07 04:43:49;;;;;;;;;;;1.90;99.90;;;;;;4935362;28;19927;-66
2022/02/07 04:46:41;;;;;;;;;;;1.90;99.90;;;;;;4969035;28;20029;-65
2022/02/07 04:52:24;;;;;;;;;;;1.90;99.90;;;;;;4943537;28;20095;-65
2022/02/07 04:55:03;;;;;;;;;;;2.00;99.90;;;;;;4938535;28;19927;-66
2022/02/07 05:03:04;;;;;;;;;;;2.00;99.90;;;;;;4936549;28;20021;-70
2022/02/07 05:13:43;;;;;;;;;;;2.00;99.90;;;;;;4942411;28;19922;-68
2022/02/07 05:13:46;;;;;;;;;;;2.10;99.90;;;;;;4940921;28;19989;-66
2022/02/07 05:16:29;;;;;;;;;;;2.10;99.90;;;;;;4941480;28;20045;-63
2022/02/07 05:19:06;;;;;;;;;;;2.10;99.90;;;;;;4939629;28;20042;-64
2022/02/07 05:21:41;;;;;;;;;;;2.10;99.90;;;;;;4930682;28;19981;-65
2022/02/07 05:24:22;;;;;;;;;;;2.10;99.90;;;;;;4941080;28;19930;-63
2022/02/07 05:27:08;;;;;;;;;;;2.10;99.90;;;;;;4931490;28;20015;-63
2022/02/07 05:29:41;;;;;;;;;;;2.10;99.90;;;;;;4936668;28;19926;-66
2022/02/07 05:32:27;;;;;;;;;;;2.10;99.90;;;;;;4940398;28;19923;-63
2022/02/07 05:35:10;;;;;;;;;;;2.00;99.90;;;;;;4936512;28;19959;-66
2022/02/07 05:37:55;;;;;;;;;;;2.10;99.90;;;;;;4941390;28;19937;-65
2022/02/07 05:40:37;;;;;;;;;;;2.10;99.90;;;;;;4943371;28;20368;-64
2022/02/07 05:43:27;;;;;;;;;;;2.10;99.90;;;;;;4859049;28;20076;-65
2022/02/07 05:46:17;;;;;;;;;;;2.00;99.90;;;;;;1350493;28;10002009;-65
2022/02/07 05:49:17;;;;;;;;;;;2.00;99.90;;;;;;4920804;28;19927;-64
2022/02/07 05:51:51;;;;;;;;;;;1.90;99.90;;;;;;4941381;28;19930;-64
2022/02/07 05:54:41;;;;;;;;;;;1.90;99.90;;;;;;4942576;28;19930;-67
2022/02/07 05:57:32;;;;;;;;;;;1.90;99.90;;;;;;4942201;28;19922;-67
2022/02/07 06:00:38;;;;;;;;;;;1.90;99.90;;;;;;4941592;29;19966;-64
2022/02/07 06:03:12;;;;;;;;;;;2.00;99.90;;;;;;4945802;28;19973;-68
2022/02/07 06:05:43;;;;;;;;;;;1.90;99.90;;;;;;4944259;28;19922;-66
2022/02/07 06:08:20;;;;;;;;;;;1.90;99.90;;;;;;4946183;28;19937;-65
2022/02/07 06:10:47;;;;;;;;;;;1.90;99.90;;;;;;4940245;28;20493;-65
2022/02/07 06:13:19;;;;;;;;;;;1.90;99.90;;;;;;4935280;28;20361;-68
2022/02/07 06:15:51;;;;;;;;;;;1.90;99.90;;;;;;4939222;28;19930;-66
2022/02/07 06:18:20;;;;;;;;;;;1.90;99.90;;;;;;4945557;28;20013;-68
2022/02/07 06:20:49;;;;;;;;;;;1.90;99.90;;;;;;4942323;28;20005;-66
2022/02/07 06:23:17;;;;;;;;;;;1.90;99.90;;;;;;4958815;28;19927;-67
2022/02/07 06:25:46;;;;;;;;;;;1.90;99.90;;;;;;4941283;28;19930;-66
2022/02/07 06:28:14;;;;;;;;;;;1.90;99.90;;;;;;4940899;28;19922;-66
2022/02/07 06:30:45;;;;;;;;;;;1.90;99.90;;;;;;4942977;28;20018;-66
2022/02/07 06:33:13;;;;;;;;;;;1.90;99.90;;;;;;4931022;28;20439;-67
2022/02/07 06:35:41;;;;;;;;;;;1.90;99.90;;;;;;4946076;28;20454;-63
2022/02/07 06:38:08;;;;;;;;;;;1.90;99.90;;;;;;4960457;28;19931;-63
2022/02/07 06:40:37;;;;;;;;;;;1.90;99.90;;;;;;4944144;28;19985;-64
2022/02/07 06:43:04;;;;;;;;;;;1.80;99.90;;;;;;4937657;28;19923;-66
2022/02/07 06:45:32;;;;;;;;;;;1.80;99.90;;;;;;4938504;28;20033;-69
2022/02/07 06:47:59;;;;;;;;;;;1.80;99.90;;;;;;4932485;28;19926;-66
2022/02/07 06:50:26;;;;;;;;;;;1.80;99.90;;;;;;4956838;28;20558;-65
2022/02/07 06:52:53;;;;;;;;;;;1.80;99.90;;;;;;4957320;28;19961;-63
2022/02/07 06:55:20;;;;;;;;;;;1.70;99.90;;;;;;4942817;28;20025;-64
2022/02/07 06:57:47;;;;;;;;;;;1.70;99.90;;;;;;4944735;28;19941;-65
2022/02/07 07:00:17;;;;;;;;;;;1.70;99.90;;;;;;4966025;28;19934;-66
2022/02/07 07:02:44;;;;;;;;;;;1.70;99.90;;;;;;4938018;28;19937;-66
2022/02/07 07:05:14;;;;;;;;;;;1.70;99.90;;;;;;4939059;28;19922;-65
2022/02/07 07:07:47;;;;;;;;;;;1.60;99.90;;;;;;4959723;28;20033;-68
2022/02/07 07:10:15;;;;;;;;;;;1.60;99.90;;;;;;4958005;28;19926;-64
2022/02/07 07:12:44;;;;;;;;;;;1.60;99.90;;;;;;4943346;28;20345;-71
2022/02/07 07:15:16;;;;;;;;;;;1.60;99.90;;;;;;4943049;28;19926;-66
2022/02/07 07:17:43;;;;;;;;;;;1.60;99.90;;;;;;4942615;28;20030;-68
2022/02/07 07:20:11;;;;;;;;;;;1.60;99.90;;;;;;4943605;28;19930;-63
2022/02/07 07:22:41;;;;;;;;;;;1.60;99.90;;;;;;4960754;28;19927;-67
2022/02/07 07:25:17;;;;;;;;;;;1.60;99.90;;;;;;4953586;28;19927;-64
2022/02/07 07:30:32;;;;;;;;;;;1.60;99.90;;;;;;4968359;28;19927;-64
2022/02/07 07:33:04;;;;;;;;;;;1.60;99.90;;;;;;4943091;28;19988;-69
2022/02/07 07:35:32;;;;;;;;;;;1.60;99.90;;;;;;4955451;28;19962;-66
2022/02/07 07:37:59;;;;;;;;;;;1.60;99.90;;;;;;4942039;28;19926;-64
2022/02/07 07:40:28;;;;;;;;;;;1.70;99.90;;;;;;4955715;28;19926;-64
2022/02/07 07:42:56;;;;;;;;;;;1.60;99.90;;;;;;4940849;28;19970;-65
2022/02/07 07:45:42;;;;;;;;;;;1.60;99.90;;;;;;4882408;28;19952;-64
2022/02/07 07:48:57;;;;;;;;;;;1.60;99.90;;;;;;1096531;29;10021755;-67
2022/02/07 07:51:50;;;;;;;;;;;1.60;99.90;;;;;;4602180;28;10000956;-68
2022/02/07 08:02:46;;;;;;;;;;;1.70;99.90;;;;;;4943800;28;20456;-66
2022/02/07 08:05:38;;;;;;;;;;;1.70;99.90;;;;;;4939544;28;19982;-65
2022/02/07 08:08:19;;;;;;;;;;;1.70;99.90;;;;;;4942734;28;19942;-64
2022/02/07 08:11:02;;;;;;;;;;;1.70;99.90;;;;;;4939034;28;19926;-63
2022/02/07 08:13:33;;;;;;;;;;;1.70;99.90;;;;;;4943016;28;19945;-66
2022/02/07 08:16:08;;;;;;;;;;;1.70;99.90;;;;;;4942646;28;19926;-65
2022/02/07 08:18:35;;;;;;;;;;;1.70;99.90;;;;;;4943260;28;20241;-63
2022/02/07 08:21:02;;;;;;;;;;;1.70;99.90;;;;;;4962843;28;19926;-64
2022/02/07 08:23:29;;;;;;;;;;;1.60;99.90;;;;;;4940135;28;19965;-63
2022/02/07 08:25:58;;;;;;;;;;;1.60;99.90;;;;;;4941733;28;19926;-66
2022/02/07 08:28:42;;;;;;;;;;;1.70;99.90;;;;;;4942571;28;19926;-69
2022/02/07 08:31:09;;;;;;;;;;;1.70;99.90;;;;;;4940011;28;20017;-65
2022/02/07 08:33:36;;;;;;;;;;;1.60;99.90;;;;;;4939000;28;19939;-62
2022/02/07 08:36:05;;;;;;;;;;;1.60;99.90;;;;;;4940693;28;19977;-64
2022/02/07 08:38:33;;;;;;;;;;;1.60;99.90;;;;;;4942314;28;19970;-64
2022/02/07 08:41:00;;;;;;;;;;;1.70;99.90;;;;;;4934989;28;19977;-63
2022/02/07 08:43:27;;;;;;;;;;;1.70;99.90;;;;;;4943422;28;20000;-63
2022/02/07 08:45:53;;;;;;;;;;;1.70;99.90;;;;;;4939287;28;20029;-63
2022/02/07 08:48:20;;;;;;;;;;;1.70;99.90;;;;;;4940088;28;20305;-63
2022/02/07 08:50:51;;;;;;;;;;;1.80;99.90;;;;;;4939439;28;19927;-64
2022/02/07 08:53:20;;;;;;;;;;;1.80;99.90;;;;;;4939149;28;20616;-63
2022/02/07 08:55:51;;;;;;;;;;;1.80;99.90;;;;;;4939197;28;20128;-67
2022/02/07 08:58:22;;;;;;;;;;;1.80;99.90;;;;;;4938626;28;19974;-66
2022/02/07 09:01:00;;;;;;;;;;;1.90;99.90;;;;;;4939633;28;19978;-64
2022/02/07 09:04:10;;;;;;;;;;;1.90;99.90;;;;;;4938922;28;19927;-63
2022/02/07 09:07:24;;;;;;;;;;;1.90;99.90;;;;;;4939459;28;19923;-64
2022/02/07 09:09:18;;;;;;;;;;;1.90;99.90;;;;;;4941788;28;20411;-67
2022/02/07 09:11:45;;;;;;;;;;;1.90;99.90;;;;;;4939920;28;19942;-64
2022/02/07 09:14:19;;;;;;;;;;;1.90;99.90;;;;;;4940808;28;19998;-63
2022/02/07 09:16:46;;;;;;;;;;;1.90;99.90;;;;;;4935643;28;19930;-63
2022/02/07 09:19:16;;;;;;;;;;;2.00;99.90;;;;;;4940552;28;20739;-68
2022/02/07 09:21:42;;;;;;;;;;;2.00;99.90;;;;;;4939386;28;20312;-65
2022/02/07 09:24:12;;;;;;;;;;;2.00;99.90;;;;;;4942411;28;20213;-64
2022/02/07 09:26:38;;;;;;;;;;;2.00;99.90;;;;;;4936792;28;19926;-67
2022/02/07 09:29:05;;;;;;;;;;;1.90;99.90;;;;;;4939254;28;19989;-63
2022/02/07 09:31:32;;;;;;;;;;;1.90;99.90;;;;;;4945501;28;20045;-64
2022/02/07 09:33:59;;;;;;;;;;;1.90;99.90;;;;;;4944345;28;19994;-65
2022/02/07 09:36:26;;;;;;;;;;;2.00;99.90;;;;;;4945285;28;19922;-63
2022/02/07 09:38:53;;;;;;;;;;;2.00;99.90;;;;;;4942464;28;19931;-68
2022/02/07 09:41:21;;;;;;;;;;;1.90;99.90;;;;;;4942610;28;19954;-65
2022/02/07 09:43:50;;;;;;;;;;;2.00;99.90;;;;;;4947429;28;19926;-65
2022/02/07 09:46:21;;;;;;;;;;;2.00;99.90;;;;;;4824903;28;20970;-64
2022/02/07 09:48:51;;;;;;;;;;;2.00;99.90;;;;;;1000836;28;10002156;-66
2022/02/07 09:51:18;;;;;;;;;;;1.90;99.90;;;;;;4942631;28;19933;-63
2022/02/07 09:53:45;;;;;;;;;;;1.90;99.90;;;;;;4943844;28;19977;-64
2022/02/07 09:56:12;;;;;;;;;;;1.90;99.90;;;;;;4943099;28;20096;-64
2022/02/07 09:58:39;;;;;;;;;;;1.90;99.90;;;;;;4946478;28;19923;-63
2022/02/07 10:01:11;;;;;;;;;;;1.90;99.90;;;;;;4942278;28;19965;-65
2022/02/07 10:03:50;;;;;;;;;;;2.00;99.90;;;;;;4947544;28;20014;-65
2022/02/07 10:06:32;;;;;;;;;;;1.90;99.90;;;;;;4942168;28;19938;-65
2022/02/07 10:09:20;;;;;;;;;;;1.90;99.90;;;;;;4943417;28;19922;-63
2022/02/07 10:12:43;;;;;;;;;;;1.90;99.90;;;;;;4943539;28;19938;-64
2022/02/07 10:37:59;;;;;;;;;;;2.20;99.90;;;;;;4939960;28;19922;-65
2022/02/07 10:40:24;;;;;;;;;;;2.20;99.90;;;;;;4938133;28;20013;-64
2022/02/07 10:45:52;;;;;;;;;;;2.30;99.90;;;;;;4944096;28;19949;-63
2022/02/07 10:48:48;;;;;;;;;;;2.30;99.90;;;;;;4945360;28;19922;-64
2022/02/07 10:51:18;;;;;;;;;;;2.30;99.90;;;;;;4925639;28;19926;-63
2022/02/07 10:53:49;;;;;;;;;;;2.30;99.90;;;;;;4945950;28;20340;-64
2022/02/07 10:56:17;;;;;;;;;;;2.40;99.90;;;;;;4940469;28;20294;-63
2022/02/07 10:58:44;;;;;;;;;;;2.40;99.90;;;;;;4931451;28;19997;-67
2022/02/07 11:01:19;;;;;;;;;;;2.40;99.90;;;;;;4942187;28;20037;-66
2022/02/07 11:03:51;;;;;;;;;;;2.40;99.90;;;;;;4932446;28;20027;-67
2022/02/07 11:06:23;;;;;;;;;;;2.40;99.90;;;;;;4942325;28;19926;-64
2022/02/07 11:27:44;;;;;;;;;;;2.60;99.90;;;;;;4938019;28;20322;-63
2022/02/07 11:30:12;;;;;;;;;;;2.60;99.90;;;;;;4937595;28;19958;-64
2022/02/07 11:32:43;;;;;;;;;;;2.60;99.90;;;;;;4939556;28;19990;-64
2022/02/07 11:35:11;;;;;;;;;;;2.60;99.90;;;;;;4943036;28;19973;-68
2022/02/07 11:37:38;;;;;;;;;;;2.60;99.90;;;;;;4937975;28;20304;-65
2022/02/07 11:40:23;;;;;;;;;;;2.70;99.90;;;;;;4945081;28;19926;-65
2022/02/07 11:43:06;;;;;;;;;;;2.70;99.90;;;;;;4883342;28;21393;-64
2022/02/07 11:45:56;;;;;;;;;;;2.70;99.90;;;;;;1790565;28;10022026;-63
2022/02/07 11:48:29;;;;;;;;;;;2.80;99.90;;;;;;4600406;28;10001186;-66
2022/02/07 11:51:00;;;;;;;;;;;2.80;99.90;;;;;;4941558;28;19968;-63
2022/02/07 11:53:32;;;;;;;;;;;2.80;99.90;;;;;;4941241;28;20265;-67
2022/02/07 11:56:07;;;;;;;;;;;2.80;99.90;;;;;;4941748;28;19973;-67
2022/02/07 11:58:47;;;;;;;;;;;2.90;99.90;;;;;;4942579;28;20412;-63
2022/02/07 12:01:20;;;;;;;;;;;2.90;99.90;;;;;;4938886;28;19930;-64
2022/02/07 12:03:53;;;;;;;;;;;3.00;99.90;;;;;;4942898;28;20343;-66
2022/02/07 12:06:24;;;;;;;;;;;3.00;99.90;;;;;;4929992;28;20020;-65
2022/02/07 12:08:54;;;;;;;;;;;3.10;99.90;;;;;;4941635;28;19965;-63
2022/02/07 12:11:41;;;;;;;;;;;3.10;99.90;;;;;;4942169;28;19961;-65
2022/02/07 12:14:26;;;;;;;;;;;3.10;99.90;;;;;;4944507;28;19930;-65
2022/02/07 12:16:53;;;;;;;;;;;3.20;99.90;;;;;;4937863;28;19930;-69
2022/02/07 12:19:20;;;;;;;;;;;3.30;99.90;;;;;;4943359;28;19926;-63
2022/02/07 12:21:53;;;;;;;;;;;3.30;99.90;;;;;;4940799;28;19938;-64
2022/02/07 12:24:40;;;;;;;;;;;3.30;99.90;;;;;;4941707;28;19923;-67
2022/02/07 12:27:07;;;;;;;;;;;3.40;99.90;;;;;;4940120;28;19933;-67
2022/02/07 12:29:58;;;;;;;;;;;3.40;99.90;;;;;;4938543;28;20368;-67
2022/02/07 12:32:23;;;;;;;;;;;3.50;99.90;;;;;;4940956;28;20020;-63
2022/02/07 12:34:50;;;;;;;;;;;3.60;99.90;;;;;;4942723;28;20445;-68
2022/02/07 12:37:17;;;;;;;;;;;3.70;99.90;;;;;;4940580;28;20036;-67
2022/02/07 12:39:47;;;;;;;;;;;3.70;99.90;;;;;;4945488;28;19929;-68
2022/02/07 12:42:20;;;;;;;;;;;3.70;99.90;;;;;;4942325;28;19922;-63
2022/02/07 12:44:47;;;;;;;;;;;3.80;99.90;;;;;;4937768;28;20009;-64
2022/02/07 12:47:14;;;;;;;;;;;3.80;99.90;;;;;;4939528;28;20010;-62
2022/02/07 12:49:47;;;;;;;;;;;3.70;99.90;;;;;;4940434;28;19962;-64
2022/02/07 12:52:14;;;;;;;;;;;3.60;99.90;;;;;;4940944;28;19977;-63
2022/02/07 12:54:41;;;;;;;;;;;3.60;99.90;;;;;;4942672;28;20141;-63
2022/02/07 12:57:07;;;;;;;;;;;3.60;99.90;;;;;;4938630;28;20025;-63
2022/02/07 12:59:34;;;;;;;;;;;3.50;99.90;;;;;;4939272;28;20005;-63
2022/02/07 13:02:01;;;;;;;;;;;3.50;99.90;;;;;;4939631;28;19927;-65
2022/02/07 13:04:29;;;;;;;;;;;3.50;99.90;;;;;;4942504;28;20295;-62
2022/02/07 13:07:01;;;;;;;;;;;3.50;99.90;;;;;;4940142;28;19922;-63
2022/02/07 13:09:38;;;;;;;;;;;3.50;99.90;;;;;;4941185;28;19968;-67
2022/02/07 13:14:43;;;;;;;;;;;3.50;99.90;;;;;;4940204;28;20312;-65
2022/02/07 13:17:10;;;;;;;;;;;3.50;99.90;;;;;;4938932;28;19970;-65
2022/02/07 13:19:39;;;;;;;;;;;3.50;99.90;;;;;;4939351;28;19953;-64
2022/02/07 13:22:06;;;;;;;;;;;3.50;99.90;;;;;;4942203;28;19973;-66
2022/02/07 13:24:35;;;;;;;;;;;3.40;99.90;;;;;;4939326;28;19930;-63
2022/02/07 13:27:04;;;;;;;;;;;3.50;99.90;;;;;;4937961;28;19926;-65
2022/02/07 13:29:41;;;;;;;;;;;3.50;99.90;;;;;;4938716;28;19926;-64
2022/02/07 13:32:08;;;;;;;;;;;3.50;99.90;;;;;;4938089;28;19945;-65
2022/02/07 13:34:36;;;;;;;;;;;3.40;99.90;;;;;;4943345;28;19922;-62
2022/02/07 13:37:05;;;;;;;;;;;3.50;99.90;;;;;;4938178;28;21161;-66
2022/02/07 13:39:32;;;;;;;;;;;3.40;99.90;;;;;;4943053;28;19930;-63
2022/02/07 13:42:03;;;;;;;;;;;3.40;99.90;;;;;;4938662;28;20608;-67
2022/02/07 13:44:39;;;;;;;;;;;3.40;99.90;;;;;;3482886;28;10022725;-64
2022/02/07 13:47:06;;;;;;;;;;;3.40;99.90;;;;;;2722389;28;10001976;-64
2022/02/07 13:49:33;;;;;;;;;;;3.40;99.90;;;;;;4942959;28;20063;-66
2022/02/07 13:51:59;;;;;;;;;;;3.40;99.90;;;;;;4935988;28;20021;-62
2022/02/07 13:54:28;;;;;;;;;;;3.40;99.90;;;;;;4936490;28;20416;-63
2022/02/07 13:56:59;;;;;;;;;;;3.40;99.90;;;;;;4931473;28;19974;-64
2022/02/07 13:59:33;;;;;;;;;;;3.50;99.90;;;;;;4939545;28;20338;-62
2022/02/07 14:02:00;;;;;;;;;;;3.50;99.90;;;;;;4933622;28;19926;-63
2022/02/07 14:04:28;;;;;;;;;;;3.50;99.90;;;;;;4937147;28;19922;-63
2022/02/07 14:07:09;;;;;;;;;;;3.50;99.90;;;;;;4934001;28;20021;-63
2022/02/07 14:09:39;;;;;;;;;;;3.50;99.90;;;;;;4939019;28;20299;-66
2022/02/07 14:12:07;;;;;;;;;;;3.50;99.90;;;;;;4937451;28;20017;-62
2022/02/07 14:14:33;;;;;;;;;;;3.50;99.90;;;;;;4941255;28;20046;-65
2022/02/07 14:17:00;;;;;;;;;;;3.50;99.90;;;;;;4938497;28;20021;-69
2022/02/07 14:19:34;;;;;;;;;;;3.50;99.90;;;;;;4967994;28;19927;-66
2022/02/07 14:22:01;;;;;;;;;;;3.50;99.90;;;;;;4940533;28;19950;-63
2022/02/07 14:24:28;;;;;;;;;;;3.50;99.90;;;;;;4945082;28;20301;-63
2022/02/07 14:27:14;;;;;;;;;;;3.50;99.90;;;;;;4939810;28;19922;-69
2022/02/07 14:29:41;;;;;;;;;;;3.50;99.90;;;;;;4945156;28;19964;-67
2022/02/07 14:32:19;;;;;;;;;;;3.50;99.90;;;;;;4943194;28;20136;-70
2022/02/07 14:34:46;;;;;;;;;;;3.40;99.90;;;;;;4942316;28;20017;-68
2022/02/07 14:37:14;;;;;;;;;;;3.40;99.90;;;;;;4944257;28;19938;-65
2022/02/07 14:39:40;;;;;;;;;;;3.40;99.90;;;;;;4943719;28;19923;-63
2022/02/07 14:42:08;;;;;;;;;;;3.40;99.90;;;;;;4944944;28;19930;-73
2022/02/07 14:44:44;;;;;;;;;;;3.40;99.90;;;;;;4945476;28;19926;-62
2022/02/07 14:47:26;;;;;;;;;;;3.40;99.90;;;;;;4942446;28;19974;-71
2022/02/07 14:49:52;;;;;;;;;;;3.40;99.90;;;;;;4948525;28;19953;-63
2022/02/07 14:52:19;;;;;;;;;;;3.40;99.90;;;;;;4940903;28;20351;-68
2022/02/07 14:54:46;;;;;;;;;;;3.40;99.90;;;;;;4945147;28;19944;-68
2022/02/07 14:57:13;;;;;;;;;;;3.40;99.90;;;;;;4940722;28;21102;-66
2022/02/07 14:59:41;;;;;;;;;;;3.40;99.90;;;;;;4944238;28;20064;-64
2022/02/07 15:02:08;;;;;;;;;;;3.40;99.90;;;;;;4938610;28;19927;-63
2022/02/07 15:04:35;;;;;;;;;;;3.30;99.90;;;;;;4942841;28;19926;-64
2022/02/07 15:07:02;;;;;;;;;;;3.30;99.90;;;;;;4938829;28;19923;-63
2022/02/07 15:09:29;;;;;;;;;;;3.30;99.90;;;;;;4936308;28;19949;-63
2022/02/07 15:12:00;;;;;;;;;;;3.20;99.90;;;;;;4947264;28;20036;-64
2022/02/07 15:14:27;;;;;;;;;;;3.20;99.90;;;;;;4942934;28;19985;-65
2022/02/07 15:16:54;;;;;;;;;;;3.20;99.90;;;;;;4941676;28;19977;-68
2022/02/07 15:19:21;;;;;;;;;;;3.10;99.90;;;;;;4944548;28;19922;-64
2022/02/07 15:21:49;;;;;;;;;;;3.20;99.90;;;;;;4937437;28;20056;-67
2022/02/07 15:24:16;;;;;;;;;;;3.10;99.90;;;;;;4933082;28;19950;-69
2022/02/07 15:26:45;;;;;;;;;;;3.10;99.90;;;;;;4932867;28;20025;-69
2022/02/07 15:29:13;;;;;;;;;;;3.10;99.90;;;;;;4930343;28;19946;-67
2022/02/07 15:31:46;;;;;;;;;;;3.10;99.90;;;;;;4933037;28;19937;-69
2022/02/07 15:34:14;;;;;;;;;;;3.10;99.90;;;;;;4934757;28;19930;-71
2022/02/07 15:36:43;;;;;;;;;;;3.00;99.90;;;;;;4925559;28;19953;-69
2022/02/07 15:39:10;;;;;;;;;;;3.00;99.90;;;;;;4924743;28;19930;-66
2022/02/07 15:41:37;;;;;;;;;;;3.00;99.90;;;;;;4932042;28;20017;-62
2022/02/07 15:44:04;;;;;;;;;;;3.00;99.90;;;;;;4931961;28;19942;-70
2022/02/07 15:46:32;;;;;;;;;;;3.00;99.90;;;;;;4934012;28;19930;-62
2022/02/07 15:48:59;;;;;;;;;;;2.90;99.90;;;;;;4932108;28;20005;-66
2022/02/07 15:51:26;;;;;;;;;;;3.00;99.90;;;;;;4932502;28;19926;-70
2022/02/07 15:53:53;;;;;;;;;;;3.00;99.90;;;;;;4933263;28;20888;-66
2022/02/07 15:56:20;;;;;;;;;;;2.90;99.90;;;;;;4933428;28;19930;-64
2022/02/07 15:58:47;;;;;;;;;;;2.90;99.90;;;;;;4932533;28;19937;-68
2022/02/07 16:01:13;;;;;;;;;;;2.90;99.90;;;;;;4933195;28;20491;-69
2022/02/07 16:03:40;;;;;;;;;;;2.90;99.90;;;;;;4935233;28;20020;-68
2022/02/07 16:06:07;;;;;;;;;;;2.90;99.90;;;;;;4932471;28;20773;-70
2022/02/07 16:08:34;;;;;;;;;;;2.90;99.90;;;;;;4933728;28;20020;-63
2022/02/07 16:11:02;;;;;;;;;;;2.80;99.90;;;;;;4931924;28;20126;-69
2022/02/07 16:13:34;;;;;;;;;;;2.80;99.90;;;;;;4933865;28;19937;-68
2022/02/07 16:16:02;;;;;;;;;;;2.80;99.90;;;;;;4935590;28;19958;-66
2022/02/07 16:18:29;;;;;;;;;;;2.80;99.90;;;;;;4937889;28;20597;-68
2022/02/07 16:20:58;;;;;;;;;;;2.80;99.90;;;;;;4933316;28;20590;-66
2022/02/07 16:23:25;;;;;;;;;;;2.80;99.90;;;;;;4936285;28;20075;-65
2022/02/07 16:25:51;;;;;;;;;;;2.80;99.90;;;;;;4937058;28;20045;-67
2022/02/07 16:28:19;;;;;;;;;;;2.80;99.90;;;;;;4930540;28;20718;-66
2022/02/07 16:30:47;;;;;;;;;;;2.70;99.90;;;;;;4931377;28;20021;-69
2022/02/07 16:33:16;;;;;;;;;;;2.70;99.90;;;;;;4929555;28;19931;-71
2022/02/07 16:35:43;;;;;;;;;;;2.70;99.90;;;;;;4932701;28;19930;-66
2022/02/07 16:38:12;;;;;;;;;;;2.70;99.90;;;;;;4932786;28;20295;-67
2022/02/07 16:40:40;;;;;;;;;;;2.70;99.90;;;;;;4935177;28;20708;-67
2022/02/07 16:43:07;;;;;;;;;;;2.70;99.90;;;;;;4926955;28;19933;-66
2022/02/07 16:48:26;;;;;;;;;;;2.70;99.90;;;;;;4924611;28;19930;-73
2022/02/07 16:50:53;;;;;;;;;;;2.60;99.90;;;;;;4930867;28;19994;-66
2022/02/07 16:53:20;;;;;;;;;;;2.60;99.90;;;;;;4934298;28;19931;-67
2022/02/07 16:55:47;;;;;;;;;;;2.60;99.90;;;;;;4936218;28;20427;-68
2022/02/07 16:58:14;;;;;;;;;;;2.60;99.90;;;;;;4934384;28;19931;-69
2022/02/07 17:00:42;;;;;;;;;;;2.60;99.90;;;;;;4932780;28;19937;-67
2022/02/07 17:03:12;;;;;;;;;;;2.60;99.90;;;;;;4931663;28;20025;-66
2022/02/07 17:05:40;;;;;;;;;;;2.60;99.90;;;;;;4935524;28;19971;-64
2022/02/07 17:08:06;;;;;;;;;;;2.60;99.90;;;;;;4934533;28;20147;-66
2022/02/07 17:10:33;;;;;;;;;;;2.60;99.90;;;;;;4935272;28;20178;-65
2022/02/07 17:13:00;;;;;;;;;;;2.60;99.90;;;;;;4934066;28;19930;-65
2022/02/07 17:15:29;;;;;;;;;;;2.60;99.90;;;;;;4935391;28;19990;-70
2022/02/07 17:17:56;;;;;;;;;;;2.60;99.90;;;;;;4931884;28;19950;-67
2022/02/07 17:20:23;;;;;;;;;;;2.60;99.90;;;;;;4935575;28;19966;-68
2022/02/07 17:22:51;;;;;;;;;;;2.60;99.90;;;;;;4930583;28;19933;-70
2022/02/07 17:25:18;;;;;;;;;;;2.60;99.90;;;;;;4933136;28;20015;-72
2022/02/07 17:27:45;;;;;;;;;;;2.60;99.90;;;;;;4926106;28;19984;-67
2022/02/07 17:30:12;;;;;;;;;;;2.50;99.90;;;;;;4934584;28;19958;-65